SBCJ/CKS METAR and TAF weather

Enter ICAO airport designator
Station Type Date Time Source
SBCJ METAR 2019/10/15 22:00 UTC NOAA

SBCJ 152200Z 17007KT 9999 TS VCSH SCT019 FEW025CB 23/18 Q1015


Station Type Date Time Source
SBCJ Decoded METAR 2019/10/15 22:00 UTC NOAA

Carajas / Maraba, Brazil (SBCJ) 06-07S 050-00W
Oct 15, 2019 - 06:00 PM EDT / 2019.10.15 2200 UTC
Wind: from the S (170 degrees) at 8 MPH (7 KT):0
Visibility: greater than 7 mile(s):0
Sky conditions: partly cloudy
Weather: thunder; showers in the vicinity; Cumulonimbus clouds observed
Temperature: 73 F (23 C)
Dew Point: 64 F (18 C)
Relative Humidity: 73%
Pressure (altimeter): 29.97 in. Hg (1015 hPa)
ob: SBCJ 152200Z 17007KT 9999 TS VCSH SCT019 FEW025CB 23/18 Q1015
cycle: 22

Station Type Date Time Source
SBCJ TAF 2019/10/15 18:39 UTC NOAA

TAF TAF SBCJ 151500Z 1518/1606 01003KT 9999 SCT025 TX26/1518Z TN24/1522Z
BECMG 1521/1523 00000KT CAVOK
RMK PHD

Example: see airport list